sensor_id;sensor_type;location;lat;lon;timestamp;temperature;humidity
38084;DHT22;23894;51.466;7.444;2022-12-18T00:01:49;-7.70;99.90
38084;DHT22;23894;51.466;7.444;2022-12-18T00:03:50;-7.70;99.90
38084;DHT22;23894;51.466;7.444;2022-12-18T00:05:52;-7.70;99.90
38084;DHT22;23894;51.466;7.444;2022-12-18T00:07:52;-7.70;99.90
38084;DHT22;23894;51.466;7.444;2022-12-18T00:09:53;-7.70;99.90
38084;DHT22;23894;51.466;7.444;2022-12-18T00:11:53;-7.70;99.90
38084;DHT22;23894;51.466;7.444;2022-12-18T00:13:56;-7.70;99.90
38084;DHT22;23894;51.466;7.444;2022-12-18T00:16:01;-7.70;99.90
38084;DHT22;23894;51.466;7.444;2022-12-18T00:18:05;-7.70;99.90
38084;DHT22;23894;51.466;7.444;2022-12-18T00:20:06;-7.60;99.90
38084;DHT22;23894;51.466;7.444;2022-12-18T00:22:07;-7.70;99.90
38084;DHT22;23894;51.466;7.444;2022-12-18T00:24:09;-7.80;99.90
38084;DHT22;23894;51.466;7.444;2022-12-18T00:26:19;-7.80;99.90
38084;DHT22;23894;51.466;7.444;2022-12-18T00:28:20;-7.80;99.90
38084;DHT22;23894;51.466;7.444;2022-12-18T00:30:21;-7.80;99.90
38084;DHT22;23894;51.466;7.444;2022-12-18T00:32:21;-7.80;99.90
38084;DHT22;23894;51.466;7.444;2022-12-18T00:34:22;-7.80;99.90
38084;DHT22;23894;51.466;7.444;2022-12-18T00:36:25;-7.80;99.90
38084;DHT22;23894;51.466;7.444;2022-12-18T00:38:26;-7.80;99.90
38084;DHT22;23894;51.466;7.444;2022-12-18T00:40:26;-7.80;99.90
38084;DHT22;23894;51.466;7.444;2022-12-18T00:42:27;-7.70;99.90
38084;DHT22;23894;51.466;7.444;2022-12-18T00:44:46;-7.70;99.90
38084;DHT22;23894;51.466;7.444;2022-12-18T00:46:47;-7.70;99.90
38084;DHT22;23894;51.466;7.444;2022-12-18T00:48:48;-7.80;99.90
38084;DHT22;23894;51.466;7.444;2022-12-18T00:50:49;-7.70;99.90
38084;DHT22;23894;51.466;7.444;2022-12-18T00:52:50;-7.70;99.90
38084;DHT22;23894;51.466;7.444;2022-12-18T00:54:51;-7.70;99.90
38084;DHT22;23894;51.466;7.444;2022-12-18T00:56:52;-7.70;99.90
38084;DHT22;23894;51.466;7.444;2022-12-18T00:58:52;-7.60;99.90
38084;DHT22;23894;51.466;7.444;2022-12-18T01:00:53;-7.70;99.90
38084;DHT22;23894;51.466;7.444;2022-12-18T01:02:53;-7.60;99.90
38084;DHT22;23894;51.466;7.444;2022-12-18T01:04:54;-7.60;99.90
38084;DHT22;23894;51.466;7.444;2022-12-18T01:06:54;-7.60;99.90
38084;DHT22;23894;51.466;7.444;2022-12-18T01:08:55;-7.50;99.90
38084;DHT22;23894;51.466;7.444;2022-12-18T01:10:56;-7.60;99.90
38084;DHT22;23894;51.466;7.444;2022-12-18T01:12:57;-7.60;99.90
38084;DHT22;23894;51.466;7.444;2022-12-18T01:14:57;-7.60;99.90
38084;DHT22;23894;51.466;7.444;2022-12-18T01:16:58;-7.60;99.90
38084;DHT22;23894;51.466;7.444;2022-12-18T01:18:58;-7.70;99.90
38084;DHT22;23894;51.466;7.444;2022-12-18T01:20:59;-7.70;99.90
38084;DHT22;23894;51.466;7.444;2022-12-18T01:22:59;-7.60;99.90
38084;DHT22;23894;51.466;7.444;2022-12-18T01:25:00;-7.60;99.90
38084;DHT22;23894;51.466;7.444;2022-12-18T01:27:00;-7.50;99.90
38084;DHT22;23894;51.466;7.444;2022-12-18T01:29:01;-7.50;99.90
38084;DHT22;23894;51.466;7.444;2022-12-18T01:31:12;-7.50;99.90
38084;DHT22;23894;51.466;7.444;2022-12-18T01:33:13;-7.50;99.90
38084;DHT22;23894;51.466;7.444;2022-12-18T01:35:14;-7.50;99.90
38084;DHT22;23894;51.466;7.444;2022-12-18T01:37:14;-7.50;99.90
38084;DHT22;23894;51.466;7.444;2022-12-18T01:39:15;-7.50;99.90
38084;DHT22;23894;51.466;7.444;2022-12-18T01:41:18;-7.50;99.90
38084;DHT22;23894;51.466;7.444;2022-12-18T01:43:19;-7.50;99.90
38084;DHT22;23894;51.466;7.444;2022-12-18T01:45:25;-7.50;99.90
38084;DHT22;23894;51.466;7.444;2022-12-18T01:47:43;-7.50;99.90
38084;DHT22;23894;51.466;7.444;2022-12-18T01:49:44;-7.50;99.90
38084;DHT22;23894;51.466;7.444;2022-12-18T01:51:45;-7.50;99.90
38084;DHT22;23894;51.466;7.444;2022-12-18T01:53:46;-7.50;99.90
38084;DHT22;23894;51.466;7.444;2022-12-18T01:55:52;-7.50;99.90
38084;DHT22;23894;51.466;7.444;2022-12-18T01:57:54;-7.50;99.90
38084;DHT22;23894;51.466;7.444;2022-12-18T02:00:00;-7.40;99.90
38084;DHT22;23894;51.466;7.444;2022-12-18T02:02:02;-7.40;99.90
38084;DHT22;23894;51.466;7.444;2022-12-18T02:04:25;-7.40;99.90
38084;DHT22;23894;51.466;7.444;2022-12-18T02:06:40;-7.40;99.90
38084;DHT22;23894;51.466;7.444;2022-12-18T02:13:32;-7.20;99.90
38084;DHT22;23894;51.466;7.444;2022-12-18T02:15:50;-7.20;99.90
38084;DHT22;23894;51.466;7.444;2022-12-18T02:17:58;-7.20;99.90
38084;DHT22;23894;51.466;7.444;2022-12-18T02:20:11;-7.20;99.90
38084;DHT22;23894;51.466;7.444;2022-12-18T02:22:42;-7.20;99.90
38084;DHT22;23894;51.466;7.444;2022-12-18T02:27:03;-7.00;99.90
38084;DHT22;23894;51.466;7.444;2022-12-18T02:29:21;-7.00;99.90
38084;DHT22;23894;51.466;7.444;2022-12-18T02:31:25;-7.10;99.90
38084;DHT22;23894;51.466;7.444;2022-12-18T02:33:27;-7.00;99.90
38084;DHT22;23894;51.466;7.444;2022-12-18T02:35:30;-7.00;99.90
38084;DHT22;23894;51.466;7.444;2022-12-18T02:37:32;-6.90;99.90
38084;DHT22;23894;51.466;7.444;2022-12-18T02:39:36;-6.90;99.90
38084;DHT22;23894;51.466;7.444;2022-12-18T02:41:37;-6.80;99.90
38084;DHT22;23894;51.466;7.444;2022-12-18T02:43:38;-6.70;99.90
38084;DHT22;23894;51.466;7.444;2022-12-18T02:45:58;-6.70;99.90
38084;DHT22;23894;51.466;7.444;2022-12-18T02:47:59;-6.60;99.90
38084;DHT22;23894;51.466;7.444;2022-12-18T02:50:21;-6.50;99.90
38084;DHT22;23894;51.466;7.444;2022-12-18T02:52:37;-6.30;99.90
38084;DHT22;23894;51.466;7.444;2022-12-18T02:56:55;-6.20;99.90
38084;DHT22;23894;51.466;7.444;2022-12-18T02:59:09;-6.20;99.90
38084;DHT22;23894;51.466;7.444;2022-12-18T03:04:20;-5.90;99.90
38084;DHT22;23894;51.466;7.444;2022-12-18T03:06:32;-5.80;99.90
38084;DHT22;23894;51.466;7.444;2022-12-18T03:08:43;-5.70;99.90
38084;DHT22;23894;51.466;7.444;2022-12-18T03:10:56;-5.70;99.90
38084;DHT22;23894;51.466;7.444;2022-12-18T03:13:04;-5.80;99.90
38084;DHT22;23894;51.466;7.444;2022-12-18T03:15:37;-5.70;99.90
38084;DHT22;23894;51.466;7.444;2022-12-18T03:17:42;-5.70;99.90
38084;DHT22;23894;51.466;7.444;2022-12-18T03:19:45;-5.60;99.90
38084;DHT22;23894;51.466;7.444;2022-12-18T03:21:51;-5.50;99.90
38084;DHT22;23894;51.466;7.444;2022-12-18T03:23:54;-5.50;99.90
38084;DHT22;23894;51.466;7.444;2022-12-18T03:25:57;-5.40;99.90
38084;DHT22;23894;51.466;7.444;2022-12-18T03:28:00;-5.40;99.90
38084;DHT22;23894;51.466;7.444;2022-12-18T03:30:07;-5.20;99.90
38084;DHT22;23894;51.466;7.444;2022-12-18T03:32:11;-5.10;99.90
38084;DHT22;23894;51.466;7.444;2022-12-18T03:34:20;-5.10;99.90
38084;DHT22;23894;51.466;7.444;2022-12-18T03:36:22;-5.00;99.90
38084;DHT22;23894;51.466;7.444;2022-12-18T03:38:24;-4.90;99.90
38084;DHT22;23894;51.466;7.444;2022-12-18T03:40:33;-4.90;99.90
38084;DHT22;23894;51.466;7.444;2022-12-18T03:43:00;-4.90;99.90
38084;DHT22;23894;51.466;7.444;2022-12-18T03:45:32;-4.80;99.90
38084;DHT22;23894;51.466;7.444;2022-12-18T03:47:59;-4.70;99.90
38084;DHT22;23894;51.466;7.444;2022-12-18T03:50:15;-4.60;99.90
38084;DHT22;23894;51.466;7.444;2022-12-18T03:52:33;-4.60;99.90
38084;DHT22;23894;51.466;7.444;2022-12-18T03:54:37;-4.50;99.90
38084;DHT22;23894;51.466;7.444;2022-12-18T03:56:43;-4.20;99.90
38084;DHT22;23894;51.466;7.444;2022-12-18T03:58:46;-3.90;99.90
38084;DHT22;23894;51.466;7.444;2022-12-18T04:00:49;-3.50;99.90
38084;DHT22;23894;51.466;7.444;2022-12-18T04:02:54;-3.40;99.90
38084;DHT22;23894;51.466;7.444;2022-12-18T04:04:58;-3.20;99.90
38084;DHT22;23894;51.466;7.444;2022-12-18T04:07:00;-3.00;99.90
38084;DHT22;23894;51.466;7.444;2022-12-18T04:09:02;-2.80;99.90
38084;DHT22;23894;51.466;7.444;2022-12-18T04:11:04;-2.70;99.90
38084;DHT22;23894;51.466;7.444;2022-12-18T04:13:06;-2.60;99.90
38084;DHT22;23894;51.466;7.444;2022-12-18T04:15:08;-2.40;99.90
38084;DHT22;23894;51.466;7.444;2022-12-18T04:17:08;-2.30;99.90
38084;DHT22;23894;51.466;7.444;2022-12-18T04:19:09;-2.20;99.90
38084;DHT22;23894;51.466;7.444;2022-12-18T04:21:10;-2.10;99.90
38084;DHT22;23894;51.466;7.444;2022-12-18T04:23:10;-2.00;99.90
38084;DHT22;23894;51.466;7.444;2022-12-18T04:25:11;-2.00;99.90
38084;DHT22;23894;51.466;7.444;2022-12-18T04:27:11;-2.00;99.90
38084;DHT22;23894;51.466;7.444;2022-12-18T04:29:12;-2.00;99.90
38084;DHT22;23894;51.466;7.444;2022-12-18T04:31:13;-2.00;99.90
38084;DHT22;23894;51.466;7.444;2022-12-18T04:33:17;-1.90;99.90
38084;DHT22;23894;51.466;7.444;2022-12-18T04:35:17;-2.00;99.90
38084;DHT22;23894;51.466;7.444;2022-12-18T04:37:18;-2.00;99.90
38084;DHT22;23894;51.466;7.444;2022-12-18T04:39:18;-2.00;99.90
38084;DHT22;23894;51.466;7.444;2022-12-18T04:41:19;-2.10;99.90
38084;DHT22;23894;51.466;7.444;2022-12-18T04:43:20;-2.10;99.90
38084;DHT22;23894;51.466;7.444;2022-12-18T04:45:20;-2.10;99.90
38084;DHT22;23894;51.466;7.444;2022-12-18T04:47:21;-2.20;99.90
38084;DHT22;23894;51.466;7.444;2022-12-18T04:49:22;-2.20;99.90
38084;DHT22;23894;51.466;7.444;2022-12-18T04:51:22;-2.30;99.90
38084;DHT22;23894;51.466;7.444;2022-12-18T04:53:23;-2.30;99.90
38084;DHT22;23894;51.466;7.444;2022-12-18T04:55:24;-2.40;99.90
38084;DHT22;23894;51.466;7.444;2022-12-18T04:57:24;-2.40;99.90
38084;DHT22;23894;51.466;7.444;2022-12-18T04:59:25;-2.50;99.90
38084;DHT22;23894;51.466;7.444;2022-12-18T05:01:25;-2.50;99.90
38084;DHT22;23894;51.466;7.444;2022-12-18T05:03:26;-2.50;99.90
38084;DHT22;23894;51.466;7.444;2022-12-18T05:05:27;-2.50;99.90
38084;DHT22;23894;51.466;7.444;2022-12-18T05:07:27;-2.60;99.90
38084;DHT22;23894;51.466;7.444;2022-12-18T05:09:28;-2.70;99.90
38084;DHT22;23894;51.466;7.444;2022-12-18T05:11:28;-2.80;99.90
38084;DHT22;23894;51.466;7.444;2022-12-18T05:13:30;-2.90;99.90
38084;DHT22;23894;51.466;7.444;2022-12-18T05:15:32;-3.00;99.90
38084;DHT22;23894;51.466;7.444;2022-12-18T05:17:32;-3.00;99.90
38084;DHT22;23894;51.466;7.444;2022-12-18T05:19:33;-3.10;99.90
38084;DHT22;23894;51.466;7.444;2022-12-18T05:21:34;-3.20;99.90
38084;DHT22;23894;51.466;7.444;2022-12-18T05:23:34;-3.20;99.90
38084;DHT22;23894;51.466;7.444;2022-12-18T05:25:35;-3.30;99.90
38084;DHT22;23894;51.466;7.444;2022-12-18T05:27:35;-3.40;99.90
38084;DHT22;23894;51.466;7.444;2022-12-18T05:29:36;-3.50;99.90
38084;DHT22;23894;51.466;7.444;2022-12-18T05:31:37;-3.60;99.90
38084;DHT22;23894;51.466;7.444;2022-12-18T05:33:37;-3.70;99.90
38084;DHT22;23894;51.466;7.444;2022-12-18T05:35:38;-3.80;99.90
38084;DHT22;23894;51.466;7.444;2022-12-18T05:37:38;-3.80;99.90
38084;DHT22;23894;51.466;7.444;2022-12-18T05:39:39;-3.90;99.90
38084;DHT22;23894;51.466;7.444;2022-12-18T05:41:40;-3.90;99.90
38084;DHT22;23894;51.466;7.444;2022-12-18T05:43:40;-3.90;99.90
38084;DHT22;23894;51.466;7.444;2022-12-18T05:45:41;-3.90;99.90
38084;DHT22;23894;51.466;7.444;2022-12-18T05:47:41;-4.00;99.90
38084;DHT22;23894;51.466;7.444;2022-12-18T05:49:42;-4.00;99.90
38084;DHT22;23894;51.466;7.444;2022-12-18T05:51:43;-4.00;99.90
38084;DHT22;23894;51.466;7.444;2022-12-18T05:53:43;-4.00;99.90
38084;DHT22;23894;51.466;7.444;2022-12-18T05:55:45;-4.10;99.90
38084;DHT22;23894;51.466;7.444;2022-12-18T05:57:45;-4.10;99.90
38084;DHT22;23894;51.466;7.444;2022-12-18T05:59:46;-4.10;99.90
38084;DHT22;23894;51.466;7.444;2022-12-18T06:01:47;-4.10;99.90
38084;DHT22;23894;51.466;7.444;2022-12-18T06:03:47;-4.20;99.90
38084;DHT22;23894;51.466;7.444;2022-12-18T06:05:48;-4.30;99.90
38084;DHT22;23894;51.466;7.444;2022-12-18T06:07:48;-4.30;99.90
38084;DHT22;23894;51.466;7.444;2022-12-18T06:09:49;-4.40;99.90
38084;DHT22;23894;51.466;7.444;2022-12-18T06:11:51;-4.50;99.90
38084;DHT22;23894;51.466;7.444;2022-12-18T06:13:53;-4.50;99.90
38084;DHT22;23894;51.466;7.444;2022-12-18T06:15:54;-4.60;99.90
38084;DHT22;23894;51.466;7.444;2022-12-18T06:17:55;-4.60;99.90
38084;DHT22;23894;51.466;7.444;2022-12-18T06:19:56;-4.70;99.90
38084;DHT22;23894;51.466;7.444;2022-12-18T06:21:56;-4.60;99.90
38084;DHT22;23894;51.466;7.444;2022-12-18T06:23:59;-4.70;99.90
38084;DHT22;23894;51.466;7.444;2022-12-18T06:26:06;-4.70;99.90
38084;DHT22;23894;51.466;7.444;2022-12-18T06:28:07;-4.80;99.90
38084;DHT22;23894;51.466;7.444;2022-12-18T06:30:08;-4.80;99.90
38084;DHT22;23894;51.466;7.444;2022-12-18T06:32:09;-4.90;99.90
38084;DHT22;23894;51.466;7.444;2022-12-18T06:34:09;-5.00;99.90
38084;DHT22;23894;51.466;7.444;2022-12-18T06:36:12;-5.00;99.90
38084;DHT22;23894;51.466;7.444;2022-12-18T06:38:13;-5.00;99.90
38084;DHT22;23894;51.466;7.444;2022-12-18T06:40:13;-5.00;99.90
38084;DHT22;23894;51.466;7.444;2022-12-18T06:42:14;-5.00;99.90
38084;DHT22;23894;51.466;7.444;2022-12-18T06:44:14;-5.00;99.90
38084;DHT22;23894;51.466;7.444;2022-12-18T06:46:15;-5.00;99.90
38084;DHT22;23894;51.466;7.444;2022-12-18T06:48:16;-5.00;99.90
38084;DHT22;23894;51.466;7.444;2022-12-18T06:50:16;-5.10;99.90
38084;DHT22;23894;51.466;7.444;2022-12-18T06:52:17;-5.00;99.90
38084;DHT22;23894;51.466;7.444;2022-12-18T06:54:17;-5.00;99.90
38084;DHT22;23894;51.466;7.444;2022-12-18T06:56:18;-5.10;99.90
38084;DHT22;23894;51.466;7.444;2022-12-18T06:58:19;-5.10;99.90
38084;DHT22;23894;51.466;7.444;2022-12-18T07:00:19;-5.10;99.90
38084;DHT22;23894;51.466;7.444;2022-12-18T07:02:20;-5.10;99.90
38084;DHT22;23894;51.466;7.444;2022-12-18T07:04:20;-5.20;99.90
38084;DHT22;23894;51.466;7.444;2022-12-18T07:06:23;-5.20;99.90
38084;DHT22;23894;51.466;7.444;2022-12-18T07:08:24;-5.20;99.90
38084;DHT22;23894;51.466;7.444;2022-12-18T07:10:25;-5.30;99.90
38084;DHT22;23894;51.466;7.444;2022-12-18T07:12:29;-5.30;99.90
38084;DHT22;23894;51.466;7.444;2022-12-18T07:14:30;-5.30;99.90
38084;DHT22;23894;51.466;7.444;2022-12-18T07:16:30;-5.40;99.90
38084;DHT22;23894;51.466;7.444;2022-12-18T07:18:31;-5.40;99.90
38084;DHT22;23894;51.466;7.444;2022-12-18T07:20:31;-5.30;99.90
38084;DHT22;23894;51.466;7.444;2022-12-18T07:22:32;-5.40;99.90
38084;DHT22;23894;51.466;7.444;2022-12-18T07:24:33;-5.40;99.90
38084;DHT22;23894;51.466;7.444;2022-12-18T07:26:34;-5.40;99.90
38084;DHT22;23894;51.466;7.444;2022-12-18T07:28:36;-5.50;99.90
38084;DHT22;23894;51.466;7.444;2022-12-18T07:30:38;-5.50;99.90
38084;DHT22;23894;51.466;7.444;2022-12-18T07:32:38;-5.50;99.90
38084;DHT22;23894;51.466;7.444;2022-12-18T07:34:39;-5.40;99.90
38084;DHT22;23894;51.466;7.444;2022-12-18T07:36:39;-5.40;99.90
38084;DHT22;23894;51.466;7.444;2022-12-18T07:38:40;-5.40;99.90
38084;DHT22;23894;51.466;7.444;2022-12-18T07:40:41;-5.40;99.90
38084;DHT22;23894;51.466;7.444;2022-12-18T07:42:41;-5.40;99.90
38084;DHT22;23894;51.466;7.444;2022-12-18T07:44:42;-5.40;99.90
38084;DHT22;23894;51.466;7.444;2022-12-18T07:46:42;-5.30;99.90
38084;DHT22;23894;51.466;7.444;2022-12-18T07:48:44;-5.30;99.90
38084;DHT22;23894;51.466;7.444;2022-12-18T07:50:44;-5.30;99.90
38084;DHT22;23894;51.466;7.444;2022-12-18T07:52:45;-5.30;99.90
38084;DHT22;23894;51.466;7.444;2022-12-18T07:54:46;-5.30;99.90
38084;DHT22;23894;51.466;7.444;2022-12-18T07:56:49;-5.30;99.90
38084;DHT22;23894;51.466;7.444;2022-12-18T07:58:49;-5.30;99.90
38084;DHT22;23894;51.466;7.444;2022-12-18T08:00:50;-5.20;99.90
38084;DHT22;23894;51.466;7.444;2022-12-18T08:02:51;-5.10;99.90
38084;DHT22;23894;51.466;7.444;2022-12-18T08:04:51;-5.00;99.90
38084;DHT22;23894;51.466;7.444;2022-12-18T08:06:53;-4.90;99.90
38084;DHT22;23894;51.466;7.444;2022-12-18T08:08:54;-4.80;99.90
38084;DHT22;23894;51.466;7.444;2022-12-18T08:10:55;-4.70;99.90
38084;DHT22;23894;51.466;7.444;2022-12-18T08:12:56;-4.60;99.90
38084;DHT22;23894;51.466;7.444;2022-12-18T08:14:57;-4.50;99.90
38084;DHT22;23894;51.466;7.444;2022-12-18T08:16:57;-4.40;99.90
38084;DHT22;23894;51.466;7.444;2022-12-18T08:18:58;-4.20;99.90
38084;DHT22;23894;51.466;7.444;2022-12-18T08:21:08;-4.00;99.90
38084;DHT22;23894;51.466;7.444;2022-12-18T08:23:09;-3.90;99.90
38084;DHT22;23894;51.466;7.444;2022-12-18T08:25:10;-3.80;99.90
38084;DHT22;23894;51.466;7.444;2022-12-18T08:27:10;-3.70;99.90
38084;DHT22;23894;51.466;7.444;2022-12-18T08:29:11;-3.60;99.90
38084;DHT22;23894;51.466;7.444;2022-12-18T08:31:12;-3.50;99.90
38084;DHT22;23894;51.466;7.444;2022-12-18T08:33:12;-3.40;99.90
38084;DHT22;23894;51.466;7.444;2022-12-18T08:35:13;-3.40;99.90
38084;DHT22;23894;51.466;7.444;2022-12-18T08:37:13;-3.30;99.90
38084;DHT22;23894;51.466;7.444;2022-12-18T08:39:14;-3.30;99.90
38084;DHT22;23894;51.466;7.444;2022-12-18T08:41:16;-3.30;99.90
38084;DHT22;23894;51.466;7.444;2022-12-18T08:43:17;-3.20;99.90
38084;DHT22;23894;51.466;7.444;2022-12-18T08:45:36;-3.10;99.90
38084;DHT22;23894;51.466;7.444;2022-12-18T08:47:36;-3.00;99.90
38084;DHT22;23894;51.466;7.444;2022-12-18T08:49:37;-3.00;99.90
38084;DHT22;23894;51.466;7.444;2022-12-18T08:51:38;-2.90;99.90
38084;DHT22;23894;51.466;7.444;2022-12-18T08:53:39;-2.80;99.90
38084;DHT22;23894;51.466;7.444;2022-12-18T08:55:39;-2.70;99.90
38084;DHT22;23894;51.466;7.444;2022-12-18T08:57:40;-2.60;99.90
38084;DHT22;23894;51.466;7.444;2022-12-18T08:59:41;-2.50;99.90
38084;DHT22;23894;51.466;7.444;2022-12-18T09:01:41;-2.40;99.90
38084;DHT22;23894;51.466;7.444;2022-12-18T09:03:42;-2.30;99.90
38084;DHT22;23894;51.466;7.444;2022-12-18T09:05:43;-2.20;99.90
38084;DHT22;23894;51.466;7.444;2022-12-18T09:07:45;-2.00;99.90
38084;DHT22;23894;51.466;7.444;2022-12-18T09:09:46;-1.90;99.90
38084;DHT22;23894;51.466;7.444;2022-12-18T09:11:46;-1.70;99.90
38084;DHT22;23894;51.466;7.444;2022-12-18T09:13:47;-1.60;99.90
38084;DHT22;23894;51.466;7.444;2022-12-18T09:15:52;-1.50;99.90
38084;DHT22;23894;51.466;7.444;2022-12-18T09:17:53;-1.40;99.90
38084;DHT22;23894;51.466;7.444;2022-12-18T09:19:54;-1.20;99.90
38084;DHT22;23894;51.466;7.444;2022-12-18T09:21:54;-1.10;99.90
38084;DHT22;23894;51.466;7.444;2022-12-18T09:23:56;-1.00;99.90
38084;DHT22;23894;51.466;7.444;2022-12-18T09:25:59;-0.80;99.90
38084;DHT22;23894;51.466;7.444;2022-12-18T09:28:00;-0.60;99.90
38084;DHT22;23894;51.466;7.444;2022-12-18T09:30:01;-0.40;99.90
38084;DHT22;23894;51.466;7.444;2022-12-18T09:32:02;-0.20;99.90
38084;DHT22;23894;51.466;7.444;2022-12-18T09:34:07;-0.10;99.90
38084;DHT22;23894;51.466;7.444;2022-12-18T09:36:09;-0.10;99.90
38084;DHT22;23894;51.466;7.444;2022-12-18T09:38:14;0.00;99.90
38084;DHT22;23894;51.466;7.444;2022-12-18T09:40:16;0.10;99.90
38084;DHT22;23894;51.466;7.444;2022-12-18T09:42:21;0.10;99.90
38084;DHT22;23894;51.466;7.444;2022-12-18T09:46:34;0.40;99.90
38084;DHT22;23894;51.466;7.444;2022-12-18T09:48:42;0.50;99.90
38084;DHT22;23894;51.466;7.444;2022-12-18T09:50:45;0.70;99.90
38084;DHT22;23894;51.466;7.444;2022-12-18T09:52:50;0.80;99.90
38084;DHT22;23894;51.466;7.444;2022-12-18T09:57:30;1.00;99.90
38084;DHT22;23894;51.466;7.444;2022-12-18T09:59:37;1.10;99.90
38084;DHT22;23894;51.466;7.444;2022-12-18T10:01:39;1.20;99.90
38084;DHT22;23894;51.466;7.444;2022-12-18T10:03:40;1.30;99.90
38084;DHT22;23894;51.466;7.444;2022-12-18T10:08:02;1.50;99.90
38084;DHT22;23894;51.466;7.444;2022-12-18T10:10:38;1.60;99.90
38084;DHT22;23894;51.466;7.444;2022-12-18T10:14:59;1.80;99.90
38084;DHT22;23894;51.466;7.444;2022-12-18T10:17:28;1.90;99.90
38084;DHT22;23894;51.466;7.444;2022-12-18T10:21:48;2.00;99.90
38084;DHT22;23894;51.466;7.444;2022-12-18T10:24:44;2.10;99.90
38084;DHT22;23894;51.466;7.444;2022-12-18T10:26:25;2.20;99.90
38084;DHT22;23894;51.466;7.444;2022-12-18T10:28:26;2.30;99.90
38084;DHT22;23894;51.466;7.444;2022-12-18T10:30:29;2.30;99.90
38084;DHT22;23894;51.466;7.444;2022-12-18T10:32:30;2.40;99.90
38084;DHT22;23894;51.466;7.444;2022-12-18T10:34:31;2.50;99.90
38084;DHT22;23894;51.466;7.444;2022-12-18T10:36:31;2.50;99.90
38084;DHT22;23894;51.466;7.444;2022-12-18T10:38:32;2.60;99.90
38084;DHT22;23894;51.466;7.444;2022-12-18T10:40:47;2.70;99.90
38084;DHT22;23894;51.466;7.444;2022-12-18T10:45:27;2.80;99.90
38084;DHT22;23894;51.466;7.444;2022-12-18T10:47:28;2.90;99.90
38084;DHT22;23894;51.466;7.444;2022-12-18T10:49:33;2.90;99.90
38084;DHT22;23894;51.466;7.444;2022-12-18T10:51:36;3.00;99.90
38084;DHT22;23894;51.466;7.444;2022-12-18T10:53:40;3.10;99.90
38084;DHT22;23894;51.466;7.444;2022-12-18T10:55:44;3.20;99.90
38084;DHT22;23894;51.466;7.444;2022-12-18T10:57:45;3.20;99.90
38084;DHT22;23894;51.466;7.444;2022-12-18T10:59:55;3.30;99.90
38084;DHT22;23894;51.466;7.444;2022-12-18T11:01:57;3.40;99.90
38084;DHT22;23894;51.466;7.444;2022-12-18T11:04:01;3.40;99.90
38084;DHT22;23894;51.466;7.444;2022-12-18T11:06:17;3.50;99.90
38084;DHT22;23894;51.466;7.444;2022-12-18T11:08:21;3.60;99.90
38084;DHT22;23894;51.466;7.444;2022-12-18T11:10:32;3.70;99.90
38084;DHT22;23894;51.466;7.444;2022-12-18T11:12:33;3.70;99.90
38084;DHT22;23894;51.466;7.444;2022-12-18T11:14:46;3.80;99.90
38084;DHT22;23894;51.466;7.444;2022-12-18T11:16:50;3.80;99.90
38084;DHT22;23894;51.466;7.444;2022-12-18T11:18:51;3.90;99.90
38084;DHT22;23894;51.466;7.444;2022-12-18T11:20:57;3.90;99.90
38084;DHT22;23894;51.466;7.444;2022-12-18T11:23:11;4.00;99.90
38084;DHT22;23894;51.466;7.444;2022-12-18T11:25:17;4.00;99.90
38084;DHT22;23894;51.466;7.444;2022-12-18T11:27:19;4.00;99.90
38084;DHT22;23894;51.466;7.444;2022-12-18T11:29:28;4.10;99.90
38084;DHT22;23894;51.466;7.444;2022-12-18T11:31:30;4.10;99.90
38084;DHT22;23894;51.466;7.444;2022-12-18T11:33:34;4.10;99.90
38084;DHT22;23894;51.466;7.444;2022-12-18T11:35:55;4.10;99.90
38084;DHT22;23894;51.466;7.444;2022-12-18T11:38:02;4.10;99.90
38084;DHT22;23894;51.466;7.444;2022-12-18T11:40:19;4.20;99.90
38084;DHT22;23894;51.466;7.444;2022-12-18T11:42:43;4.20;99.90
38084;DHT22;23894;51.466;7.444;2022-12-18T11:45:25;4.20;99.90
38084;DHT22;23894;51.466;7.444;2022-12-18T11:49:42;4.20;99.90
38084;DHT22;23894;51.466;7.444;2022-12-18T11:54:00;4.10;99.90
38084;DHT22;23894;51.466;7.444;2022-12-18T11:56:26;4.10;99.90
38084;DHT22;23894;51.466;7.444;2022-12-18T11:59:00;4.00;99.90
38084;DHT22;23894;51.466;7.444;2022-12-18T12:06:14;4.00;99.90
38084;DHT22;23894;51.466;7.444;2022-12-18T12:08:20;4.00;99.90
38084;DHT22;23894;51.466;7.444;2022-12-18T12:15:18;4.10;99.90
38084;DHT22;23894;51.466;7.444;2022-12-18T12:19:53;4.10;99.90
38084;DHT22;23894;51.466;7.444;2022-12-18T12:24:48;4.20;99.90
38084;DHT22;23894;51.466;7.444;2022-12-18T12:34:00;4.20;99.90
38084;DHT22;23894;51.466;7.444;2022-12-18T12:38:43;4.20;99.90
38084;DHT22;23894;51.466;7.444;2022-12-18T12:40:56;4.20;99.90
38084;DHT22;23894;51.466;7.444;2022-12-18T12:43:07;4.20;99.90
38084;DHT22;23894;51.466;7.444;2022-12-18T12:45:21;4.20;99.90
38084;DHT22;23894;51.466;7.444;2022-12-18T12:47:28;4.10;99.90
38084;DHT22;23894;51.466;7.444;2022-12-18T12:49:32;4.10;99.90
38084;DHT22;23894;51.466;7.444;2022-12-18T12:51:39;4.10;99.90
38084;DHT22;23894;51.466;7.444;2022-12-18T12:53:40;4.10;99.90
38084;DHT22;23894;51.466;7.444;2022-12-18T12:55:42;4.10;99.90
38084;DHT22;23894;51.466;7.444;2022-12-18T12:57:59;4.10;99.90
38084;DHT22;23894;51.466;7.444;2022-12-18T13:00:13;4.10;99.90
38084;DHT22;23894;51.466;7.444;2022-12-18T13:02:35;4.10;99.90
38084;DHT22;23894;51.466;7.444;2022-12-18T13:05:18;4.10;99.90
38084;DHT22;23894;51.466;7.444;2022-12-18T13:07:33;4.10;99.90
38084;DHT22;23894;51.466;7.444;2022-12-18T13:10:22;4.10;99.90
38084;DHT22;23894;51.466;7.444;2022-12-18T13:12:23;4.00;99.90
38084;DHT22;23894;51.466;7.444;2022-12-18T13:14:42;4.00;99.90
38084;DHT22;23894;51.466;7.444;2022-12-18T13:16:43;4.00;99.90
38084;DHT22;23894;51.466;7.444;2022-12-18T13:18:52;4.00;99.90
38084;DHT22;23894;51.466;7.444;2022-12-18T13:22:55;4.00;99.90
38084;DHT22;23894;51.466;7.444;2022-12-18T13:24:55;4.00;99.90
38084;DHT22;23894;51.466;7.444;2022-12-18T13:26:56;3.90;99.90
38084;DHT22;23894;51.466;7.444;2022-12-18T13:28:57;3.90;99.90
38084;DHT22;23894;51.466;7.444;2022-12-18T13:30:59;3.90;99.90
38084;DHT22;23894;51.466;7.444;2022-12-18T13:37:43;3.80;99.90
38084;DHT22;23894;51.466;7.444;2022-12-18T13:39:44;3.80;99.90
38084;DHT22;23894;51.466;7.444;2022-12-18T13:41:47;3.90;99.90
38084;DHT22;23894;51.466;7.444;2022-12-18T13:43:52;3.90;99.90
38084;DHT22;23894;51.466;7.444;2022-12-18T13:48:25;3.90;99.90
38084;DHT22;23894;51.466;7.444;2022-12-18T13:50:26;3.90;99.90
38084;DHT22;23894;51.466;7.444;2022-12-18T13:52:36;3.90;99.90
38084;DHT22;23894;51.466;7.444;2022-12-18T13:54:40;3.90;99.90
38084;DHT22;23894;51.466;7.444;2022-12-18T13:56:45;3.90;99.90
38084;DHT22;23894;51.466;7.444;2022-12-18T13:58:45;3.90;99.90
38084;DHT22;23894;51.466;7.444;2022-12-18T14:00:47;3.90;99.90
38084;DHT22;23894;51.466;7.444;2022-12-18T14:02:49;3.90;99.90
38084;DHT22;23894;51.466;7.444;2022-12-18T14:04:51;4.00;99.90
38084;DHT22;23894;51.466;7.444;2022-12-18T14:07:10;3.90;99.90
38084;DHT22;23894;51.466;7.444;2022-12-18T14:09:23;3.90;99.90
38084;DHT22;23894;51.466;7.444;2022-12-18T14:11:24;3.90;99.90
38084;DHT22;23894;51.466;7.444;2022-12-18T14:13:30;3.90;99.90
38084;DHT22;23894;51.466;7.444;2022-12-18T14:15:40;3.90;99.90